createdAt,value
2017-09-01T00:01:22.867Z,7.60
2017-09-01T00:03:53.450Z,4.80
2017-09-01T00:06:25.183Z,3.35
2017-09-01T00:08:54.526Z,4.00
2017-09-01T00:11:27.310Z,7.15
2017-09-01T00:13:55.978Z,5.47
2017-09-01T00:16:25.028Z,4.18
2017-09-01T00:18:53.101Z,6.05
2017-09-01T00:21:21.681Z,6.43
2017-09-01T00:23:49.481Z,5.35
2017-09-01T00:26:18.645Z,5.25
2017-09-01T00:28:47.192Z,8.93
2017-09-01T00:31:16.493Z,5.47
2017-09-01T00:33:44.873Z,5.25
2017-09-01T00:36:20.857Z,5.43
2017-09-01T00:38:49.274Z,6.95
2017-09-01T00:41:17.014Z,6.62
2017-09-01T00:43:45.666Z,5.90
2017-09-01T00:46:13.430Z,6.53
2017-09-01T00:48:43.566Z,7.07
2017-09-01T00:51:11.564Z,4.15
2017-09-01T00:53:41.555Z,5.68
2017-09-01T00:56:13.143Z,5.68
2017-09-01T00:58:41.192Z,5.05
2017-09-01T01:01:12.830Z,4.60
2017-09-01T01:03:40.560Z,5.32
2017-09-01T01:06:08.986Z,6.57
2017-09-01T01:08:37.691Z,6.50
2017-09-01T01:11:06.338Z,6.07
2017-09-01T01:13:34.247Z,6.57
2017-09-01T01:16:03.950Z,7.35
2017-09-01T01:18:32.506Z,6.22
2017-09-01T01:21:00.879Z,7.87
2017-09-01T01:23:30.105Z,6.45
2017-09-01T01:25:57.905Z,7.68
2017-09-01T01:28:26.585Z,6.45
2017-09-01T01:30:54.355Z,5.32
2017-09-01T01:33:23.229Z,6.18
2017-09-01T01:35:51.032Z,5.80
2017-09-01T01:38:18.809Z,6.20
2017-09-01T01:40:47.492Z,10.77
2017-09-01T01:43:15.252Z,8.10
2017-09-01T01:45:45.048Z,4.65
2017-09-01T01:48:14.485Z,4.57
2017-09-01T01:50:42.284Z,4.00
2017-09-01T01:53:12.795Z,6.20
2017-09-01T01:55:41.330Z,7.18
2017-09-01T01:58:10.031Z,5.50
2017-09-01T02:00:38.496Z,7.30
2017-09-01T02:03:06.414Z,5.07
2017-09-01T02:05:34.255Z,5.93
2017-09-01T02:08:04.117Z,10.80
2017-09-01T02:10:32.132Z,4.25
2017-09-01T02:12:59.872Z,5.80
2017-09-01T02:15:29.891Z,6.90
2017-09-01T02:17:57.636Z,5.87
2017-09-01T02:20:27.763Z,10.65
2017-09-01T02:22:55.603Z,6.20
2017-09-01T02:25:23.376Z,6.90
2017-09-01T02:27:51.181Z,5.78
2017-09-01T02:30:18.958Z,6.35
2017-09-01T02:32:47.743Z,9.35
2017-09-01T02:35:15.526Z,7.32
2017-09-01T02:37:43.325Z,6.18
2017-09-01T02:40:11.114Z,7.12
2017-09-01T02:42:38.891Z,5.82
2017-09-01T02:45:06.679Z,5.25
2017-09-01T02:47:34.459Z,4.30
2017-09-01T02:50:02.263Z,6.43
2017-09-01T02:52:31.067Z,7.05
2017-09-01T02:54:58.848Z,6.47
2017-09-01T02:57:27.490Z,9.25
2017-09-01T02:59:55.253Z,10.27
2017-09-01T03:02:23.040Z,7.55
2017-09-01T03:04:51.483Z,8.20
2017-09-01T03:07:19.265Z,7.20
2017-09-01T03:09:47.062Z,10.30
2017-09-01T03:12:14.860Z,6.57
2017-09-01T03:14:42.663Z,7.15
2017-09-01T03:17:10.440Z,8.93
2017-09-01T03:19:38.503Z,11.15
2017-09-01T03:22:06.935Z,8.50
2017-09-01T03:24:34.743Z,15.18
2017-09-01T03:27:02.530Z,7.60
2017-09-01T03:29:30.351Z,8.00
2017-09-01T03:34:32.050Z,12.57
2017-09-01T03:36:59.868Z,9.20
2017-09-01T03:39:28.409Z,10.15
2017-09-01T03:41:56.282Z,9.52
2017-09-01T03:44:24.866Z,9.27
2017-09-01T03:46:52.642Z,9.43
2017-09-01T03:49:20.433Z,14.35
2017-09-01T03:51:48.225Z,11.38
2017-09-01T03:54:16.007Z,8.13
2017-09-01T03:56:43.799Z,7.97
2017-09-01T03:59:13.326Z,7.53
2017-09-01T04:01:41.102Z,6.22
2017-09-01T04:04:08.842Z,7.53
2017-09-01T04:06:36.623Z,6.25
2017-09-01T04:09:04.402Z,7.30
2017-09-01T04:11:32.194Z,6.80
2017-09-01T04:13:59.970Z,8.23
2017-09-01T04:16:27.733Z,7.47
2017-09-01T04:18:55.527Z,7.93
2017-09-01T04:21:24.055Z,5.37
2017-09-01T04:23:51.803Z,6.50
2017-09-01T04:26:19.578Z,6.93
2017-09-01T04:28:47.317Z,8.95
2017-09-01T04:31:15.050Z,7.53
2017-09-01T04:33:43.749Z,7.93
2017-09-01T04:36:11.463Z,9.98
2017-09-01T04:38:39.214Z,7.28
2017-09-01T04:41:06.986Z,9.15
2017-09-01T04:43:34.755Z,10.80
2017-09-01T04:46:02.526Z,12.85
2017-09-01T04:48:30.922Z,10.70
2017-09-01T04:50:58.638Z,11.90
2017-09-01T04:53:26.420Z,9.32
2017-09-01T04:55:54.209Z,8.95
2017-09-01T04:58:21.942Z,12.18
2017-09-01T05:00:50.679Z,12.20
2017-09-01T05:03:18.443Z,11.18
2017-09-01T05:05:46.175Z,9.77
2017-09-01T05:08:25.917Z,10.00
2017-09-01T05:10:53.664Z,11.07
2017-09-01T05:13:21.409Z,11.20
2017-09-01T05:15:49.481Z,9.43
2017-09-01T05:18:17.280Z,13.10
2017-09-01T05:20:45.013Z,9.82
2017-09-01T05:23:13.583Z,7.43
2017-09-01T05:25:41.330Z,12.52
2017-09-01T05:28:09.077Z,22.42
2017-09-01T05:30:36.800Z,9.43
2017-09-01T05:33:04.562Z,10.93
2017-09-01T05:35:32.340Z,14.60
2017-09-01T05:38:00.093Z,12.23
2017-09-01T05:40:28.571Z,10.75
2017-09-01T05:42:56.348Z,11.77
2017-09-01T05:45:24.066Z,14.43
2017-09-01T05:47:51.797Z,11.02
2017-09-01T05:50:19.550Z,13.23
2017-09-01T05:52:47.645Z,12.15
2017-09-01T05:55:15.390Z,13.13
2017-09-01T05:57:43.110Z,14.30
2017-09-01T06:00:10.902Z,12.77
2017-09-01T06:02:38.606Z,10.60
2017-09-01T06:05:06.319Z,9.23
2017-09-01T06:07:34.847Z,11.25
2017-09-01T06:10:02.622Z,15.85
2017-09-01T06:12:30.354Z,15.02
2017-09-01T06:14:58.865Z,13.43
2017-09-01T06:17:26.575Z,16.58
2017-09-01T06:19:54.897Z,17.20
2017-09-01T06:22:22.614Z,17.08
2017-09-01T06:24:50.384Z,20.23
2017-09-01T06:27:18.110Z,19.62
2017-09-01T06:29:47.578Z,14.87
2017-09-01T06:32:15.927Z,21.17
2017-09-01T06:34:43.682Z,15.55
2017-09-01T06:37:12.100Z,21.75
2017-09-01T06:39:41.698Z,13.40
2017-09-01T06:42:10.082Z,15.90
2017-09-01T06:44:37.797Z,16.42
2017-09-01T06:47:05.522Z,20.08
2017-09-01T06:49:33.277Z,20.62
2017-09-01T06:52:01.907Z,16.60
2017-09-01T06:54:30.181Z,15.90
2017-09-01T06:56:59.121Z,19.25
2017-09-01T06:59:26.839Z,17.55
2017-09-01T07:01:58.587Z,18.58
2017-09-01T07:04:26.332Z,17.25
2017-09-01T07:07:00.571Z,15.75
2017-09-01T07:09:29.286Z,17.15
2017-09-01T07:11:57.523Z,13.35
2017-09-01T07:14:25.242Z,14.65
2017-09-01T07:16:52.995Z,21.77
2017-09-01T07:21:54.370Z,17.08
2017-09-01T07:24:22.094Z,18.27
2017-09-01T07:26:49.828Z,17.95
2017-09-01T07:29:17.566Z,19.90
2017-09-01T07:31:45.280Z,20.25
2017-09-01T07:34:12.989Z,19.35
2017-09-01T07:36:40.806Z,21.70
2017-09-01T07:39:08.516Z,19.10
2017-09-01T07:41:36.236Z,19.00
2017-09-01T07:44:03.999Z,18.27
2017-09-01T07:46:31.711Z,32.42
2017-09-01T07:48:59.465Z,24.27
2017-09-01T07:51:27.176Z,21.27
2017-09-01T07:53:54.891Z,19.33
2017-09-01T07:56:22.612Z,18.30
2017-09-01T07:58:50.329Z,21.87
2017-09-01T08:01:18.050Z,25.02
2017-09-01T08:03:45.818Z,24.80
2017-09-01T08:06:13.566Z,29.00
2017-09-01T08:08:41.440Z,27.27
2017-09-01T08:11:09.171Z,21.67
2017-09-01T08:13:36.896Z,24.23
2017-09-01T08:16:04.617Z,24.12
2017-09-01T08:18:32.337Z,20.10
2017-09-01T08:21:00.066Z,21.87
2017-09-01T08:23:27.797Z,21.25
2017-09-01T08:25:55.530Z,22.17
2017-09-01T08:28:23.266Z,23.85
2017-09-01T08:30:50.981Z,21.23
2017-09-01T08:33:18.698Z,21.33
2017-09-01T08:35:46.420Z,19.20
2017-09-01T08:38:14.140Z,20.00
2017-09-01T08:40:41.938Z,18.75
2017-09-01T08:43:09.675Z,18.67
2017-09-01T08:45:37.394Z,18.10
2017-09-01T08:48:05.121Z,19.73
2017-09-01T08:50:32.847Z,22.65
2017-09-01T08:53:00.580Z,23.50
2017-09-01T08:55:28.321Z,19.48
2017-09-01T08:57:56.043Z,21.25
2017-09-01T09:00:23.757Z,20.17
2017-09-01T09:02:51.459Z,19.17
2017-09-01T09:05:19.185Z,17.80
2017-09-01T09:07:46.902Z,18.55
2017-09-01T09:10:14.613Z,24.67
2017-09-01T09:12:42.345Z,14.98
2017-09-01T09:15:10.078Z,17.37
2017-09-01T09:17:37.791Z,16.80
2017-09-01T09:20:05.514Z,21.33
2017-09-01T09:22:33.250Z,16.58
2017-09-01T09:25:00.961Z,16.00
2017-09-01T09:27:28.675Z,16.05
2017-09-01T09:29:59.419Z,13.73
2017-09-01T09:32:27.136Z,13.80
2017-09-01T09:34:54.857Z,11.18
2017-09-01T09:37:22.591Z,13.13
2017-09-01T09:39:50.312Z,12.65
2017-09-01T09:42:18.790Z,11.93
2017-09-01T09:44:46.501Z,12.25
2017-09-01T09:47:14.226Z,14.20
2017-09-01T09:49:41.937Z,18.87
2017-09-01T09:52:09.655Z,11.15
2017-09-01T09:54:37.363Z,11.12
2017-09-01T09:57:05.072Z,11.98
2017-09-01T09:59:32.792Z,20.90
2017-09-01T10:02:00.511Z,16.25
2017-09-01T10:04:28.247Z,9.23
2017-09-01T10:06:55.997Z,11.57
2017-09-01T10:09:23.722Z,8.85
2017-09-01T10:11:51.484Z,8.63
2017-09-01T10:14:19.260Z,8.05
2017-09-01T10:16:46.999Z,11.27
2017-09-01T10:19:15.492Z,7.85
2017-09-01T10:21:43.226Z,15.18
2017-09-01T10:24:10.963Z,7.10
2017-09-01T10:26:38.749Z,5.93
2017-09-01T10:29:06.482Z,9.25
2017-09-01T10:31:34.198Z,10.27
2017-09-01T10:34:01.936Z,16.27
2017-09-01T10:36:29.661Z,6.28
2017-09-01T10:38:57.418Z,10.00
2017-09-01T10:41:25.163Z,9.65
2017-09-01T10:43:52.878Z,11.77
2017-09-01T10:46:20.599Z,9.98
2017-09-01T10:49:00.177Z,7.37
2017-09-01T10:51:39.815Z,8.88
2017-09-01T10:54:19.379Z,8.25
2017-09-01T10:56:59.043Z,6.70
2017-09-01T10:59:26.766Z,9.35
2017-09-01T11:01:54.479Z,7.70
2017-09-01T11:04:22.205Z,7.72
2017-09-01T11:06:49.972Z,5.62
2017-09-01T11:09:17.737Z,6.50
2017-09-01T11:11:45.454Z,9.40
2017-09-01T11:14:13.267Z,14.45
2017-09-01T11:16:40.987Z,9.50
2017-09-01T11:19:14.321Z,9.45
2017-09-01T11:21:47.753Z,7.03
2017-09-01T11:24:21.206Z,7.30
2017-09-01T11:26:48.914Z,6.53
2017-09-01T11:29:16.646Z,8.20
2017-09-01T11:31:44.358Z,7.05
2017-09-01T11:34:12.126Z,8.10
2017-09-01T11:36:39.837Z,6.50
2017-09-01T11:39:07.550Z,8.05
2017-09-01T11:41:35.272Z,6.47
2017-09-01T11:44:03.008Z,6.43
2017-09-01T11:46:30.735Z,6.12
2017-09-01T11:48:59.210Z,7.78
2017-09-01T11:51:26.973Z,10.35
2017-09-01T11:53:54.687Z,7.82
2017-09-01T11:56:22.441Z,11.25
2017-09-01T11:58:50.164Z,7.28
2017-09-01T12:01:17.901Z,6.95
2017-09-01T12:03:45.618Z,8.13
2017-09-01T12:06:13.316Z,9.52
2017-09-01T12:08:41.037Z,11.15
2017-09-01T12:11:08.760Z,10.70
2017-09-01T12:13:36.483Z,7.45
2017-09-01T12:16:04.183Z,9.40
2017-09-01T12:18:31.896Z,6.93
2017-09-01T12:20:59.593Z,5.22
2017-09-01T12:23:27.300Z,7.75
2017-09-01T12:25:55.010Z,7.37
2017-09-01T12:28:22.753Z,8.90
2017-09-01T12:30:50.471Z,11.68
2017-09-01T12:33:18.202Z,8.93
2017-09-01T12:35:45.921Z,5.60
2017-09-01T12:38:13.647Z,6.78
2017-09-01T12:40:41.359Z,6.55
2017-09-01T12:43:09.066Z,4.97
2017-09-01T12:45:36.784Z,5.07
2017-09-01T12:48:04.495Z,3.95
2017-09-01T12:50:32.210Z,7.37
2017-09-01T12:53:00.687Z,7.15
2017-09-01T12:55:28.393Z,6.68
2017-09-01T12:57:56.101Z,6.80
2017-09-01T13:00:23.809Z,4.45
2017-09-01T13:02:51.526Z,8.50
2017-09-01T13:05:19.237Z,6.70
2017-09-01T13:07:46.977Z,7.30
2017-09-01T13:10:15.456Z,9.70
2017-09-01T13:12:43.219Z,8.40
2017-09-01T13:15:10.931Z,4.85
2017-09-01T13:17:38.645Z,12.45
2017-09-01T13:20:06.350Z,5.68
2017-09-01T13:22:34.152Z,5.57
2017-09-01T13:25:01.869Z,5.57
2017-09-01T13:27:29.591Z,5.78
2017-09-01T13:29:57.306Z,5.72
2017-09-01T13:32:25.020Z,6.80
2017-09-01T13:34:52.737Z,7.40
2017-09-01T13:37:20.525Z,6.75
2017-09-01T13:39:48.244Z,5.82
2017-09-01T13:42:15.958Z,7.68
2017-09-01T13:44:43.693Z,6.12
2017-09-01T13:47:11.405Z,7.22
2017-09-01T13:49:39.136Z,6.65
2017-09-01T13:52:06.854Z,6.78
2017-09-01T13:54:34.573Z,8.73
2017-09-01T13:57:02.282Z,7.05
2017-09-01T13:59:30.064Z,5.40
2017-09-01T14:01:57.794Z,17.17
2017-09-01T14:04:25.552Z,5.95
2017-09-01T14:06:53.255Z,8.90
2017-09-01T14:09:20.974Z,6.40
2017-09-01T14:11:48.681Z,9.35
2017-09-01T14:14:16.388Z,5.45
2017-09-01T14:16:44.089Z,10.90
2017-09-01T14:19:11.822Z,6.90
2017-09-01T14:21:39.563Z,13.30
2017-09-01T14:24:07.269Z,6.55
2017-09-01T14:26:34.973Z,5.70
2017-09-01T14:29:02.682Z,7.95
2017-09-01T14:31:30.422Z,7.62
2017-09-01T14:33:58.122Z,5.95
2017-09-01T14:36:25.839Z,8.75
2017-09-01T14:38:53.593Z,9.05
2017-09-01T14:41:21.301Z,8.30
2017-09-01T14:43:49.006Z,8.05
2017-09-01T14:46:16.723Z,8.38
2017-09-01T14:48:44.443Z,8.25
2017-09-01T14:51:12.160Z,7.90
2017-09-01T14:53:39.862Z,5.37
2017-09-01T14:56:07.580Z,5.05
2017-09-01T14:58:35.389Z,6.20
2017-09-01T15:01:03.119Z,5.47
2017-09-01T15:03:30.847Z,10.95
2017-09-01T15:05:58.569Z,6.50
2017-09-01T15:08:26.282Z,8.90
2017-09-01T15:10:53.985Z,9.20
2017-09-01T15:13:21.717Z,4.28
2017-09-01T15:15:50.570Z,5.75
2017-09-01T15:18:20.628Z,7.40
2017-09-01T15:20:49.889Z,3.33
2017-09-01T15:23:19.748Z,4.57
2017-09-01T15:25:47.607Z,6.60
2017-09-01T15:28:15.474Z,4.57
2017-09-01T15:30:43.201Z,17.30
2017-09-01T15:33:10.910Z,9.30
2017-09-01T15:35:38.617Z,5.57
2017-09-01T15:38:06.373Z,6.37
2017-09-01T15:40:34.095Z,14.02
2017-09-01T15:43:01.825Z,8.60
2017-09-01T15:45:29.597Z,6.12
2017-09-01T15:47:57.457Z,6.37
2017-09-01T15:50:25.172Z,5.00
2017-09-01T15:52:52.895Z,3.58
2017-09-01T15:55:20.634Z,3.78
2017-09-01T15:57:48.378Z,6.62
2017-09-01T16:00:16.853Z,7.03
2017-09-01T16:02:44.561Z,3.20
2017-09-01T16:05:13.171Z,4.82
2017-09-01T16:07:40.919Z,9.32
2017-09-01T16:10:08.639Z,8.27
2017-09-01T16:12:36.385Z,6.43
2017-09-01T16:15:04.111Z,5.20
2017-09-01T16:17:31.825Z,8.02
2017-09-01T16:19:59.536Z,3.05
2017-09-01T16:22:27.253Z,4.55
2017-09-01T16:24:54.970Z,5.55
2017-09-01T16:27:22.694Z,9.73
2017-09-01T16:29:50.411Z,4.35
2017-09-01T16:32:18.132Z,3.42
2017-09-01T16:34:45.849Z,3.80
2017-09-01T16:37:13.575Z,4.15
2017-09-01T16:39:41.302Z,5.25
2017-09-01T16:42:09.034Z,6.57
2017-09-01T16:44:36.746Z,3.97
2017-09-01T16:47:04.461Z,4.37
2017-09-01T16:49:32.171Z,5.20
2017-09-01T16:51:59.892Z,6.28
2017-09-01T16:54:27.601Z,3.95
2017-09-01T16:56:55.363Z,4.80
2017-09-01T16:59:28.963Z,4.57
2017-09-01T17:01:56.663Z,4.00
2017-09-01T17:04:24.371Z,4.78
2017-09-01T17:06:52.090Z,6.18
2017-09-01T17:09:19.811Z,6.25
2017-09-01T17:11:47.522Z,5.12
2017-09-01T17:14:15.257Z,5.55
2017-09-01T17:16:42.964Z,3.30
2017-09-01T17:19:10.676Z,4.07
2017-09-01T17:21:39.149Z,7.43
2017-09-01T17:24:06.910Z,4.25
2017-09-01T17:26:34.655Z,4.50
2017-09-01T17:29:02.368Z,6.62
2017-09-01T17:31:30.114Z,4.82
2017-09-01T17:33:57.837Z,4.75
2017-09-01T17:36:25.557Z,4.82
2017-09-01T17:38:53.263Z,4.87
2017-09-01T17:41:20.978Z,6.95
2017-09-01T17:43:48.694Z,4.37
2017-09-01T17:46:16.410Z,4.20
2017-09-01T17:48:44.147Z,6.15
2017-09-01T17:51:11.867Z,5.75
2017-09-01T17:53:39.580Z,4.37
2017-09-01T17:56:07.285Z,5.32
2017-09-01T17:58:34.997Z,7.85
2017-09-01T18:01:02.748Z,4.07
2017-09-01T18:03:30.475Z,5.28
2017-09-01T18:05:58.186Z,5.20
2017-09-01T18:08:25.897Z,4.62
2017-09-01T18:10:53.619Z,4.87
2017-09-01T18:13:21.334Z,5.43
2017-09-01T18:15:49.099Z,5.53
2017-09-01T18:18:16.863Z,5.28
2017-09-01T18:20:44.563Z,6.18
2017-09-01T18:23:12.286Z,8.18
2017-09-01T18:25:40.050Z,7.97
2017-09-01T18:28:07.762Z,5.15
2017-09-01T18:30:35.475Z,6.68
2017-09-01T18:33:03.186Z,4.97
2017-09-01T18:35:30.900Z,6.22
2017-09-01T18:37:58.608Z,4.82
2017-09-01T18:40:26.351Z,6.00
2017-09-01T18:42:54.070Z,4.68
2017-09-01T18:45:21.783Z,4.05
2017-09-01T18:47:49.490Z,3.45
2017-09-01T18:50:17.201Z,8.57
2017-09-01T18:52:44.954Z,6.70
2017-09-01T18:55:12.662Z,6.22
2017-09-01T18:57:40.697Z,6.82
2017-09-01T19:00:08.418Z,9.15
2017-09-01T19:02:36.144Z,9.70
2017-09-01T19:05:03.877Z,5.12
2017-09-01T19:07:31.607Z,8.45
2017-09-01T19:09:59.348Z,6.22
2017-09-01T19:12:27.074Z,6.70
2017-09-01T19:14:54.794Z,8.40
2017-09-01T19:17:23.325Z,5.43
2017-09-01T19:19:51.038Z,7.35
2017-09-01T19:22:20.410Z,10.00
2017-09-01T19:24:48.171Z,10.70
2017-09-01T19:27:15.922Z,7.85
2017-09-01T19:29:43.632Z,7.45
2017-09-01T19:32:11.342Z,5.10
2017-09-01T19:34:39.057Z,5.97
2017-09-01T19:37:06.775Z,12.23
2017-09-01T19:39:34.491Z,5.35
2017-09-01T19:42:02.207Z,8.80
2017-09-01T19:44:29.936Z,6.93
2017-09-01T19:46:57.739Z,11.35
2017-09-01T19:49:25.442Z,6.25
2017-09-01T19:51:53.150Z,7.35
2017-09-01T19:54:20.958Z,6.85
2017-09-01T19:56:48.675Z,9.18
2017-09-01T19:59:16.381Z,6.10
2017-09-01T20:01:44.094Z,6.57
2017-09-01T20:04:11.809Z,15.02
2017-09-01T20:06:39.522Z,6.68
2017-09-01T20:09:07.219Z,6.50
2017-09-01T20:11:34.926Z,4.70
2017-09-01T20:14:02.638Z,10.20
2017-09-01T20:16:30.343Z,8.65
2017-09-01T20:18:58.053Z,8.25
2017-09-01T20:21:25.766Z,5.90
2017-09-01T20:23:53.490Z,6.32
2017-09-01T20:26:21.190Z,7.15
2017-09-01T20:28:48.889Z,9.60
2017-09-01T20:31:16.595Z,5.82
2017-09-01T20:33:44.306Z,5.78
2017-09-01T20:36:12.005Z,9.57
2017-09-01T20:38:39.716Z,6.37
2017-09-01T20:41:07.458Z,7.47
2017-09-01T20:43:35.153Z,8.00
2017-09-01T20:46:03.618Z,7.00
2017-09-01T20:48:31.327Z,5.95
2017-09-01T20:50:59.041Z,6.57
2017-09-01T20:53:26.741Z,6.20
2017-09-01T20:55:54.454Z,6.20
2017-09-01T20:58:22.158Z,8.23
2017-09-01T21:00:49.865Z,5.62
2017-09-01T21:03:17.578Z,9.05
2017-09-01T21:05:45.298Z,8.38
2017-09-01T21:08:12.998Z,4.97
2017-09-01T21:10:40.704Z,6.00
2017-09-01T21:13:08.415Z,6.53
2017-09-01T21:15:36.117Z,6.05
2017-09-01T21:18:03.829Z,9.68
2017-09-01T21:20:31.530Z,10.10
2017-09-01T21:22:59.238Z,8.18
2017-09-01T21:25:26.943Z,9.35
2017-09-01T21:27:54.650Z,7.35
2017-09-01T21:30:22.363Z,5.40
2017-09-01T21:32:50.062Z,7.50
2017-09-01T21:35:17.771Z,10.80
2017-09-01T21:37:45.485Z,5.85
2017-09-01T21:40:13.189Z,11.02
2017-09-01T21:42:40.889Z,8.73
2017-09-01T21:45:08.596Z,6.15
2017-09-01T21:47:36.294Z,5.75
2017-09-01T21:50:03.994Z,7.47
2017-09-01T21:52:31.720Z,8.85
2017-09-01T21:54:59.432Z,7.82
2017-09-01T21:57:27.137Z,5.68
2017-09-01T21:59:54.846Z,8.27
2017-09-01T22:02:22.594Z,8.20
2017-09-01T22:04:50.327Z,8.38
2017-09-01T22:07:18.034Z,11.38
2017-09-01T22:09:45.755Z,8.52
2017-09-01T22:12:13.466Z,8.07
2017-09-01T22:14:41.184Z,6.85
2017-09-01T22:17:08.895Z,5.70
2017-09-01T22:19:36.603Z,5.40
2017-09-01T22:22:04.328Z,6.07
2017-09-01T22:24:32.034Z,9.05
2017-09-01T22:26:59.754Z,7.32
2017-09-01T22:29:27.458Z,6.25
2017-09-01T22:31:55.161Z,10.05
2017-09-01T22:34:22.862Z,6.70
2017-09-01T22:36:50.566Z,9.68
2017-09-01T22:39:18.319Z,7.32
2017-09-01T22:41:46.014Z,5.43
2017-09-01T22:44:13.723Z,11.18
2017-09-01T22:46:41.455Z,7.75
2017-09-01T22:49:09.153Z,6.95
2017-09-01T22:51:36.858Z,8.68
2017-09-01T22:54:04.562Z,8.65
2017-09-01T22:56:32.266Z,6.05
2017-09-01T22:58:59.979Z,6.47
2017-09-01T23:01:27.698Z,6.28
2017-09-01T23:03:55.410Z,5.87
2017-09-01T23:06:23.134Z,7.60
2017-09-01T23:08:50.851Z,6.45
2017-09-01T23:11:18.566Z,8.70
2017-09-01T23:13:46.279Z,6.75
2017-09-01T23:16:13.987Z,7.15
2017-09-01T23:18:41.693Z,7.12
2017-09-01T23:21:09.415Z,6.47
2017-09-01T23:23:37.131Z,7.35
2017-09-01T23:26:04.853Z,7.68
2017-09-01T23:28:32.581Z,8.75
2017-09-01T23:31:00.294Z,7.68
2017-09-01T23:33:28.010Z,9.60
2017-09-01T23:35:55.717Z,5.95
2017-09-01T23:38:23.431Z,15.52
2017-09-01T23:40:51.146Z,5.80
2017-09-01T23:43:18.861Z,5.78
2017-09-01T23:45:46.578Z,8.82
2017-09-01T23:48:14.387Z,8.13
2017-09-01T23:50:42.089Z,8.45
2017-09-01T23:53:09.802Z,9.27
2017-09-01T23:55:37.510Z,8.80
2017-09-01T23:58:05.213Z,6.95
